sensor_id;sensor_type;location;lat;lon;timestamp;temperature;humidity
84916;DHT22;75178;53.054;5.846;2024-03-29T00:01:13;8.60;99.90
84916;DHT22;75178;53.054;5.846;2024-03-29T00:03:57;8.60;99.90
84916;DHT22;75178;53.054;5.846;2024-03-29T00:06:42;8.60;99.90
84916;DHT22;75178;53.054;5.846;2024-03-29T00:09:26;8.60;99.90
84916;DHT22;75178;53.054;5.846;2024-03-29T00:12:10;8.50;99.90
84916;DHT22;75178;53.054;5.846;2024-03-29T00:14:55;8.50;99.90
84916;DHT22;75178;53.054;5.846;2024-03-29T00:17:39;8.50;99.90
84916;DHT22;75178;53.054;5.846;2024-03-29T00:20:23;8.50;99.90
84916;DHT22;75178;53.054;5.846;2024-03-29T00:23:08;8.50;99.90
84916;DHT22;75178;53.054;5.846;2024-03-29T00:25:53;8.50;99.90
84916;DHT22;75178;53.054;5.846;2024-03-29T00:28:37;8.50;99.90
84916;DHT22;75178;53.054;5.846;2024-03-29T00:31:21;8.50;99.90
84916;DHT22;75178;53.054;5.846;2024-03-29T00:34:06;8.50;99.90
84916;DHT22;75178;53.054;5.846;2024-03-29T00:36:50;8.50;99.90
84916;DHT22;75178;53.054;5.846;2024-03-29T00:39:35;8.50;99.90
84916;DHT22;75178;53.054;5.846;2024-03-29T00:42:20;8.40;99.90
84916;DHT22;75178;53.054;5.846;2024-03-29T00:45:05;8.50;99.90
84916;DHT22;75178;53.054;5.846;2024-03-29T00:47:49;8.40;99.90
84916;DHT22;75178;53.054;5.846;2024-03-29T00:50:33;8.40;99.90
84916;DHT22;75178;53.054;5.846;2024-03-29T00:53:17;8.40;99.90
84916;DHT22;75178;53.054;5.846;2024-03-29T00:56:04;8.40;99.90
84916;DHT22;75178;53.054;5.846;2024-03-29T00:58:48;8.40;99.90
84916;DHT22;75178;53.054;5.846;2024-03-29T01:01:32;8.40;99.90
84916;DHT22;75178;53.054;5.846;2024-03-29T01:04:17;8.40;99.90
84916;DHT22;75178;53.054;5.846;2024-03-29T01:07:01;8.40;99.90
84916;DHT22;75178;53.054;5.846;2024-03-29T01:09:46;8.40;99.90
84916;DHT22;75178;53.054;5.846;2024-03-29T01:12:31;8.40;99.90
84916;DHT22;75178;53.054;5.846;2024-03-29T01:15:16;8.40;99.90
84916;DHT22;75178;53.054;5.846;2024-03-29T01:18:00;8.30;99.90
84916;DHT22;75178;53.054;5.846;2024-03-29T01:20:44;8.30;99.90
84916;DHT22;75178;53.054;5.846;2024-03-29T01:23:28;8.30;99.90
84916;DHT22;75178;53.054;5.846;2024-03-29T01:26:13;8.30;99.90
84916;DHT22;75178;53.054;5.846;2024-03-29T01:28:59;8.30;99.90
84916;DHT22;75178;53.054;5.846;2024-03-29T01:31:43;8.20;99.90
84916;DHT22;75178;53.054;5.846;2024-03-29T01:34:27;8.20;99.90
84916;DHT22;75178;53.054;5.846;2024-03-29T01:37:11;8.20;99.90
84916;DHT22;75178;53.054;5.846;2024-03-29T01:39:55;8.20;99.90
84916;DHT22;75178;53.054;5.846;2024-03-29T01:42:39;8.10;99.90
84916;DHT22;75178;53.054;5.846;2024-03-29T01:45:25;8.10;99.90
84916;DHT22;75178;53.054;5.846;2024-03-29T01:48:10;8.10;99.90
84916;DHT22;75178;53.054;5.846;2024-03-29T01:50:56;8.00;99.90
84916;DHT22;75178;53.054;5.846;2024-03-29T01:53:42;8.00;99.90
84916;DHT22;75178;53.054;5.846;2024-03-29T01:56:27;8.00;99.90
84916;DHT22;75178;53.054;5.846;2024-03-29T01:59:14;8.00;99.90
84916;DHT22;75178;53.054;5.846;2024-03-29T02:02:00;7.90;99.90
84916;DHT22;75178;53.054;5.846;2024-03-29T02:04:45;7.90;99.90
84916;DHT22;75178;53.054;5.846;2024-03-29T02:07:30;7.80;99.90
84916;DHT22;75178;53.054;5.846;2024-03-29T02:10:15;7.80;99.90
84916;DHT22;75178;53.054;5.846;2024-03-29T02:13:00;7.70;99.90
84916;DHT22;75178;53.054;5.846;2024-03-29T02:15:44;7.70;99.90
84916;DHT22;75178;53.054;5.846;2024-03-29T02:18:29;7.70;99.90
84916;DHT22;75178;53.054;5.846;2024-03-29T02:21:14;7.60;99.90
84916;DHT22;75178;53.054;5.846;2024-03-29T02:24:04;7.60;99.90
84916;DHT22;75178;53.054;5.846;2024-03-29T02:26:49;7.60;99.90
84916;DHT22;75178;53.054;5.846;2024-03-29T02:29:35;7.50;99.90
84916;DHT22;75178;53.054;5.846;2024-03-29T02:32:19;7.50;99.90
84916;DHT22;75178;53.054;5.846;2024-03-29T02:35:04;7.50;99.90
84916;DHT22;75178;53.054;5.846;2024-03-29T02:37:48;7.50;99.90
84916;DHT22;75178;53.054;5.846;2024-03-29T02:40:33;7.50;99.90
84916;DHT22;75178;53.054;5.846;2024-03-29T02:43:18;7.50;99.90
84916;DHT22;75178;53.054;5.846;2024-03-29T02:46:02;7.40;99.90
84916;DHT22;75178;53.054;5.846;2024-03-29T02:48:47;7.40;99.90
84916;DHT22;75178;53.054;5.846;2024-03-29T02:51:31;7.40;99.90
84916;DHT22;75178;53.054;5.846;2024-03-29T02:54:15;7.40;99.90
84916;DHT22;75178;53.054;5.846;2024-03-29T02:57:00;7.40;99.90
84916;DHT22;75178;53.054;5.846;2024-03-29T02:59:44;7.40;99.90
84916;DHT22;75178;53.054;5.846;2024-03-29T03:02:29;7.40;99.90
84916;DHT22;75178;53.054;5.846;2024-03-29T03:05:13;7.40;99.90
84916;DHT22;75178;53.054;5.846;2024-03-29T03:07:57;7.40;99.90
84916;DHT22;75178;53.054;5.846;2024-03-29T03:10:45;7.30;99.90
84916;DHT22;75178;53.054;5.846;2024-03-29T03:13:30;7.30;99.90
84916;DHT22;75178;53.054;5.846;2024-03-29T03:16:14;7.30;99.90
84916;DHT22;75178;53.054;5.846;2024-03-29T03:18:59;7.30;99.90
84916;DHT22;75178;53.054;5.846;2024-03-29T03:21:43;7.30;99.90
84916;DHT22;75178;53.054;5.846;2024-03-29T03:24:27;7.30;99.90
84916;DHT22;75178;53.054;5.846;2024-03-29T03:27:11;7.40;99.90
84916;DHT22;75178;53.054;5.846;2024-03-29T03:29:57;7.30;99.90
84916;DHT22;75178;53.054;5.846;2024-03-29T03:32:41;7.30;99.90
84916;DHT22;75178;53.054;5.846;2024-03-29T03:35:25;7.30;99.90
84916;DHT22;75178;53.054;5.846;2024-03-29T03:38:09;7.30;99.90
84916;DHT22;75178;53.054;5.846;2024-03-29T03:40:53;7.30;99.90
84916;DHT22;75178;53.054;5.846;2024-03-29T03:43:38;7.30;99.90
84916;DHT22;75178;53.054;5.846;2024-03-29T03:46:23;7.30;99.90
84916;DHT22;75178;53.054;5.846;2024-03-29T03:49:07;7.30;99.90
84916;DHT22;75178;53.054;5.846;2024-03-29T03:51:51;7.30;99.90
84916;DHT22;75178;53.054;5.846;2024-03-29T03:54:35;7.30;99.90
84916;DHT22;75178;53.054;5.846;2024-03-29T03:57:19;7.30;99.90
84916;DHT22;75178;53.054;5.846;2024-03-29T04:00:05;7.40;99.90
84916;DHT22;75178;53.054;5.846;2024-03-29T04:02:51;7.40;99.90
84916;DHT22;75178;53.054;5.846;2024-03-29T04:05:37;7.40;99.90
84916;DHT22;75178;53.054;5.846;2024-03-29T04:08:21;7.40;99.90
84916;DHT22;75178;53.054;5.846;2024-03-29T04:11:05;7.40;99.90
84916;DHT22;75178;53.054;5.846;2024-03-29T04:13:49;7.40;99.90
84916;DHT22;75178;53.054;5.846;2024-03-29T04:16:33;7.40;99.90
84916;DHT22;75178;53.054;5.846;2024-03-29T04:19:19;7.40;99.90
84916;DHT22;75178;53.054;5.846;2024-03-29T04:22:03;7.40;99.90
84916;DHT22;75178;53.054;5.846;2024-03-29T04:24:48;7.40;99.90
84916;DHT22;75178;53.054;5.846;2024-03-29T04:27:32;7.40;99.90
84916;DHT22;75178;53.054;5.846;2024-03-29T04:30:16;7.50;99.90
84916;DHT22;75178;53.054;5.846;2024-03-29T04:33:00;7.50;99.90
84916;DHT22;75178;53.054;5.846;2024-03-29T04:35:53;7.50;99.90
84916;DHT22;75178;53.054;5.846;2024-03-29T04:38:37;7.60;99.90
84916;DHT22;75178;53.054;5.846;2024-03-29T04:41:21;7.60;99.90
84916;DHT22;75178;53.054;5.846;2024-03-29T04:44:05;7.60;99.90
84916;DHT22;75178;53.054;5.846;2024-03-29T04:46:50;7.70;99.90
84916;DHT22;75178;53.054;5.846;2024-03-29T04:49:35;7.70;99.90
84916;DHT22;75178;53.054;5.846;2024-03-29T04:52:20;7.70;99.90
84916;DHT22;75178;53.054;5.846;2024-03-29T04:55:05;7.80;99.90
84916;DHT22;75178;53.054;5.846;2024-03-29T04:57:49;7.80;99.90
84916;DHT22;75178;53.054;5.846;2024-03-29T05:00:33;7.80;99.90
84916;DHT22;75178;53.054;5.846;2024-03-29T05:03:17;7.80;99.90
84916;DHT22;75178;53.054;5.846;2024-03-29T05:06:02;7.80;99.90
84916;DHT22;75178;53.054;5.846;2024-03-29T05:08:48;7.80;99.90
84916;DHT22;75178;53.054;5.846;2024-03-29T05:11:32;7.80;99.90
84916;DHT22;75178;53.054;5.846;2024-03-29T05:14:17;7.80;99.90
84916;DHT22;75178;53.054;5.846;2024-03-29T05:17:01;7.80;99.90
84916;DHT22;75178;53.054;5.846;2024-03-29T05:19:46;7.80;99.90
84916;DHT22;75178;53.054;5.846;2024-03-29T05:22:30;7.80;99.90
84916;DHT22;75178;53.054;5.846;2024-03-29T05:25:16;7.80;99.90
84916;DHT22;75178;53.054;5.846;2024-03-29T05:28:01;7.90;99.90
84916;DHT22;75178;53.054;5.846;2024-03-29T05:30:45;8.00;99.90
84916;DHT22;75178;53.054;5.846;2024-03-29T05:33:29;8.00;99.90
84916;DHT22;75178;53.054;5.846;2024-03-29T05:36:13;8.00;99.90
84916;DHT22;75178;53.054;5.846;2024-03-29T05:38:57;8.00;99.90
84916;DHT22;75178;53.054;5.846;2024-03-29T05:41:43;8.10;99.90
84916;DHT22;75178;53.054;5.846;2024-03-29T05:44:27;8.20;99.90
84916;DHT22;75178;53.054;5.846;2024-03-29T05:47:11;8.20;99.90
84916;DHT22;75178;53.054;5.846;2024-03-29T05:49:55;8.20;99.90
84916;DHT22;75178;53.054;5.846;2024-03-29T05:52:40;8.20;99.90
84916;DHT22;75178;53.054;5.846;2024-03-29T05:55:24;8.30;99.90
84916;DHT22;75178;53.054;5.846;2024-03-29T05:58:09;8.20;99.90
84916;DHT22;75178;53.054;5.846;2024-03-29T06:00:55;8.20;99.90
84916;DHT22;75178;53.054;5.846;2024-03-29T06:03:39;8.20;99.90
84916;DHT22;75178;53.054;5.846;2024-03-29T06:06:23;8.20;99.90
84916;DHT22;75178;53.054;5.846;2024-03-29T06:09:07;8.20;99.90
84916;DHT22;75178;53.054;5.846;2024-03-29T06:11:51;8.30;99.90
84916;DHT22;75178;53.054;5.846;2024-03-29T06:14:37;8.30;99.90
84916;DHT22;75178;53.054;5.846;2024-03-29T06:17:21;8.30;99.90
84916;DHT22;75178;53.054;5.846;2024-03-29T06:20:07;8.30;99.90
84916;DHT22;75178;53.054;5.846;2024-03-29T06:22:51;8.30;99.90
84916;DHT22;75178;53.054;5.846;2024-03-29T06:25:35;8.30;99.90
84916;DHT22;75178;53.054;5.846;2024-03-29T06:28:19;8.40;99.90
84916;DHT22;75178;53.054;5.846;2024-03-29T06:31:05;8.40;99.90
84916;DHT22;75178;53.054;5.846;2024-03-29T06:33:49;8.40;99.90
84916;DHT22;75178;53.054;5.846;2024-03-29T06:36:33;8.40;99.90
84916;DHT22;75178;53.054;5.846;2024-03-29T06:39:17;8.50;99.90
84916;DHT22;75178;53.054;5.846;2024-03-29T06:42:01;8.50;99.90
84916;DHT22;75178;53.054;5.846;2024-03-29T06:44:45;8.50;99.90
84916;DHT22;75178;53.054;5.846;2024-03-29T06:47:31;8.60;99.90
84916;DHT22;75178;53.054;5.846;2024-03-29T06:50:15;8.60;99.90
84916;DHT22;75178;53.054;5.846;2024-03-29T06:52:59;8.70;99.90
84916;DHT22;75178;53.054;5.846;2024-03-29T06:55:43;8.80;99.90
84916;DHT22;75178;53.054;5.846;2024-03-29T06:58:28;8.80;99.90
84916;DHT22;75178;53.054;5.846;2024-03-29T07:01:12;8.90;99.90
84916;DHT22;75178;53.054;5.846;2024-03-29T07:03:57;8.90;99.90
84916;DHT22;75178;53.054;5.846;2024-03-29T07:06:42;9.00;99.90
84916;DHT22;75178;53.054;5.846;2024-03-29T07:09:26;9.00;99.90
84916;DHT22;75178;53.054;5.846;2024-03-29T07:12:10;9.00;99.90
84916;DHT22;75178;53.054;5.846;2024-03-29T07:14:54;9.00;99.90
84916;DHT22;75178;53.054;5.846;2024-03-29T07:17:39;9.00;99.90
84916;DHT22;75178;53.054;5.846;2024-03-29T07:20:25;9.00;99.90
84916;DHT22;75178;53.054;5.846;2024-03-29T07:23:09;9.10;99.90
84916;DHT22;75178;53.054;5.846;2024-03-29T07:25:58;9.10;99.90
84916;DHT22;75178;53.054;5.846;2024-03-29T07:28:42;9.10;99.90
84916;DHT22;75178;53.054;5.846;2024-03-29T07:31:27;9.10;99.90
84916;DHT22;75178;53.054;5.846;2024-03-29T07:34:11;9.10;99.90
84916;DHT22;75178;53.054;5.846;2024-03-29T07:36:56;9.10;99.90
84916;DHT22;75178;53.054;5.846;2024-03-29T07:39:40;9.10;99.90
84916;DHT22;75178;53.054;5.846;2024-03-29T07:42:25;9.10;99.90
84916;DHT22;75178;53.054;5.846;2024-03-29T07:45:09;9.20;99.90
84916;DHT22;75178;53.054;5.846;2024-03-29T07:47:53;9.30;99.90
84916;DHT22;75178;53.054;5.846;2024-03-29T07:50:37;9.40;99.90
84916;DHT22;75178;53.054;5.846;2024-03-29T07:53:23;9.40;99.90
84916;DHT22;75178;53.054;5.846;2024-03-29T07:56:07;9.40;99.90
84916;DHT22;75178;53.054;5.846;2024-03-29T07:58:52;9.50;99.90
84916;DHT22;75178;53.054;5.846;2024-03-29T08:01:39;9.50;99.90
84916;DHT22;75178;53.054;5.846;2024-03-29T08:04:23;9.50;99.90
84916;DHT22;75178;53.054;5.846;2024-03-29T08:07:07;9.50;99.90
84916;DHT22;75178;53.054;5.846;2024-03-29T08:09:53;9.60;99.90
84916;DHT22;75178;53.054;5.846;2024-03-29T08:12:37;9.70;99.90
84916;DHT22;75178;53.054;5.846;2024-03-29T08:15:21;9.70;99.90
84916;DHT22;75178;53.054;5.846;2024-03-29T08:18:06;9.70;99.90
84916;DHT22;75178;53.054;5.846;2024-03-29T08:20:50;9.80;99.90
84916;DHT22;75178;53.054;5.846;2024-03-29T08:23:34;9.80;99.90
84916;DHT22;75178;53.054;5.846;2024-03-29T08:26:19;9.90;99.90
84916;DHT22;75178;53.054;5.846;2024-03-29T08:29:03;9.90;99.90
84916;DHT22;75178;53.054;5.846;2024-03-29T08:31:47;10.00;99.90
84916;DHT22;75178;53.054;5.846;2024-03-29T08:34:32;10.00;99.90
84916;DHT22;75178;53.054;5.846;2024-03-29T08:37:16;10.10;99.90
84916;DHT22;75178;53.054;5.846;2024-03-29T08:40:00;10.10;99.90
84916;DHT22;75178;53.054;5.846;2024-03-29T08:42:45;10.10;99.90
84916;DHT22;75178;53.054;5.846;2024-03-29T08:45:29;10.20;99.90
84916;DHT22;75178;53.054;5.846;2024-03-29T08:48:14;10.20;99.90
84916;DHT22;75178;53.054;5.846;2024-03-29T08:50:58;10.20;99.90
84916;DHT22;75178;53.054;5.846;2024-03-29T08:53:42;10.20;99.90
84916;DHT22;75178;53.054;5.846;2024-03-29T08:56:26;10.30;99.90
84916;DHT22;75178;53.054;5.846;2024-03-29T08:59:12;10.40;99.90
84916;DHT22;75178;53.054;5.846;2024-03-29T09:02:03;10.40;99.90
84916;DHT22;75178;53.054;5.846;2024-03-29T09:04:48;10.40;99.90
84916;DHT22;75178;53.054;5.846;2024-03-29T09:07:32;10.50;99.90
84916;DHT22;75178;53.054;5.846;2024-03-29T09:10:17;10.60;99.90
84916;DHT22;75178;53.054;5.846;2024-03-29T09:13:01;10.70;99.90
84916;DHT22;75178;53.054;5.846;2024-03-29T09:15:46;10.80;99.90
84916;DHT22;75178;53.054;5.846;2024-03-29T09:18:31;10.80;99.90
84916;DHT22;75178;53.054;5.846;2024-03-29T09:21:15;10.90;99.90
84916;DHT22;75178;53.054;5.846;2024-03-29T09:23:59;11.10;99.90
84916;DHT22;75178;53.054;5.846;2024-03-29T09:26:43;11.10;99.90
84916;DHT22;75178;53.054;5.846;2024-03-29T09:29:27;11.20;99.90
84916;DHT22;75178;53.054;5.846;2024-03-29T09:32:13;11.30;99.90
84916;DHT22;75178;53.054;5.846;2024-03-29T09:34:57;11.30;99.90
84916;DHT22;75178;53.054;5.846;2024-03-29T09:37:41;11.30;99.90
84916;DHT22;75178;53.054;5.846;2024-03-29T09:40:26;11.40;99.90
84916;DHT22;75178;53.054;5.846;2024-03-29T09:43:10;11.40;99.90
84916;DHT22;75178;53.054;5.846;2024-03-29T09:45:59;11.40;99.90
84916;DHT22;75178;53.054;5.846;2024-03-29T09:48:46;11.40;99.90
84916;DHT22;75178;53.054;5.846;2024-03-29T09:51:31;11.40;99.90
84916;DHT22;75178;53.054;5.846;2024-03-29T09:54:16;11.30;99.90
84916;DHT22;75178;53.054;5.846;2024-03-29T09:57:00;11.40;99.90
84916;DHT22;75178;53.054;5.846;2024-03-29T09:59:45;11.40;99.90
84916;DHT22;75178;53.054;5.846;2024-03-29T10:02:31;11.50;99.90
84916;DHT22;75178;53.054;5.846;2024-03-29T10:05:17;11.50;99.90
84916;DHT22;75178;53.054;5.846;2024-03-29T10:08:04;11.60;99.90
84916;DHT22;75178;53.054;5.846;2024-03-29T10:10:48;11.60;99.90
84916;DHT22;75178;53.054;5.846;2024-03-29T10:13:33;11.60;99.90
84916;DHT22;75178;53.054;5.846;2024-03-29T10:16:18;11.70;99.90
84916;DHT22;75178;53.054;5.846;2024-03-29T10:19:03;11.70;99.90
84916;DHT22;75178;53.054;5.846;2024-03-29T10:21:49;11.80;99.90
84916;DHT22;75178;53.054;5.846;2024-03-29T10:24:33;11.90;99.90
84916;DHT22;75178;53.054;5.846;2024-03-29T10:27:17;12.00;99.90
84916;DHT22;75178;53.054;5.846;2024-03-29T10:30:02;12.00;99.90
84916;DHT22;75178;53.054;5.846;2024-03-29T10:32:46;12.00;99.90
84916;DHT22;75178;53.054;5.846;2024-03-29T10:35:30;11.90;99.90
84916;DHT22;75178;53.054;5.846;2024-03-29T10:38:16;11.90;99.90
84916;DHT22;75178;53.054;5.846;2024-03-29T10:41:00;11.90;99.90
84916;DHT22;75178;53.054;5.846;2024-03-29T10:43:45;11.90;99.90
84916;DHT22;75178;53.054;5.846;2024-03-29T10:46:32;11.90;99.90
84916;DHT22;75178;53.054;5.846;2024-03-29T10:49:18;11.80;99.90
84916;DHT22;75178;53.054;5.846;2024-03-29T10:52:03;12.00;99.90
84916;DHT22;75178;53.054;5.846;2024-03-29T10:54:50;12.10;99.90
84916;DHT22;75178;53.054;5.846;2024-03-29T10:57:35;12.20;99.90
84916;DHT22;75178;53.054;5.846;2024-03-29T11:00:24;12.30;99.90
84916;DHT22;75178;53.054;5.846;2024-03-29T11:03:12;12.30;99.90
84916;DHT22;75178;53.054;5.846;2024-03-29T11:06:02;12.40;99.90
84916;DHT22;75178;53.054;5.846;2024-03-29T11:08:47;12.50;99.90
84916;DHT22;75178;53.054;5.846;2024-03-29T11:11:36;12.50;99.90
84916;DHT22;75178;53.054;5.846;2024-03-29T11:14:26;12.50;99.90
84916;DHT22;75178;53.054;5.846;2024-03-29T11:17:13;12.60;99.90
84916;DHT22;75178;53.054;5.846;2024-03-29T11:19:58;12.70;99.90
84916;DHT22;75178;53.054;5.846;2024-03-29T11:22:43;12.70;99.90
84916;DHT22;75178;53.054;5.846;2024-03-29T11:25:37;12.90;99.90
84916;DHT22;75178;53.054;5.846;2024-03-29T11:28:28;13.00;99.90
84916;DHT22;75178;53.054;5.846;2024-03-29T11:31:14;13.00;99.90
84916;DHT22;75178;53.054;5.846;2024-03-29T11:33:59;13.00;99.90
84916;DHT22;75178;53.054;5.846;2024-03-29T11:36:45;12.90;99.90
84916;DHT22;75178;53.054;5.846;2024-03-29T11:39:29;12.90;99.90
84916;DHT22;75178;53.054;5.846;2024-03-29T11:42:17;12.90;99.90
84916;DHT22;75178;53.054;5.846;2024-03-29T11:45:02;12.70;99.90
84916;DHT22;75178;53.054;5.846;2024-03-29T11:47:47;12.60;99.90
84916;DHT22;75178;53.054;5.846;2024-03-29T11:50:31;12.50;99.90
84916;DHT22;75178;53.054;5.846;2024-03-29T11:53:16;12.50;99.90
84916;DHT22;75178;53.054;5.846;2024-03-29T11:56:01;12.50;99.90
84916;DHT22;75178;53.054;5.846;2024-03-29T11:58:47;12.50;99.90
84916;DHT22;75178;53.054;5.846;2024-03-29T12:01:33;12.50;99.90
84916;DHT22;75178;53.054;5.846;2024-03-29T12:04:20;12.50;99.90
84916;DHT22;75178;53.054;5.846;2024-03-29T12:07:04;12.50;99.90
84916;DHT22;75178;53.054;5.846;2024-03-29T12:09:48;12.70;99.90
84916;DHT22;75178;53.054;5.846;2024-03-29T12:12:32;12.70;99.90
84916;DHT22;75178;53.054;5.846;2024-03-29T12:15:17;12.80;99.90
84916;DHT22;75178;53.054;5.846;2024-03-29T12:18:03;12.80;99.90
84916;DHT22;75178;53.054;5.846;2024-03-29T12:20:48;12.80;99.90
84916;DHT22;75178;53.054;5.846;2024-03-29T12:23:33;12.70;99.90
84916;DHT22;75178;53.054;5.846;2024-03-29T12:26:17;12.80;99.90
84916;DHT22;75178;53.054;5.846;2024-03-29T12:29:01;12.90;99.90
84916;DHT22;75178;53.054;5.846;2024-03-29T12:31:56;12.90;99.90
84916;DHT22;75178;53.054;5.846;2024-03-29T12:34:41;12.90;99.90
84916;DHT22;75178;53.054;5.846;2024-03-29T12:37:25;13.10;99.90
84916;DHT22;75178;53.054;5.846;2024-03-29T12:40:10;13.10;99.90
84916;DHT22;75178;53.054;5.846;2024-03-29T12:42:54;13.10;99.90
84916;DHT22;75178;53.054;5.846;2024-03-29T12:45:40;13.10;99.90
84916;DHT22;75178;53.054;5.846;2024-03-29T12:48:25;13.20;99.90
84916;DHT22;75178;53.054;5.846;2024-03-29T12:51:11;13.20;99.90
84916;DHT22;75178;53.054;5.846;2024-03-29T12:54:00;13.30;99.90
84916;DHT22;75178;53.054;5.846;2024-03-29T12:56:45;13.30;99.90
84916;DHT22;75178;53.054;5.846;2024-03-29T12:59:29;13.40;99.90
84916;DHT22;75178;53.054;5.846;2024-03-29T13:02:13;13.40;99.90
84916;DHT22;75178;53.054;5.846;2024-03-29T13:04:57;13.40;99.90
84916;DHT22;75178;53.054;5.846;2024-03-29T13:07:42;13.50;99.90
84916;DHT22;75178;53.054;5.846;2024-03-29T13:10:27;13.50;99.90
84916;DHT22;75178;53.054;5.846;2024-03-29T13:13:11;13.60;99.90
84916;DHT22;75178;53.054;5.846;2024-03-29T13:15:56;13.70;99.90
84916;DHT22;75178;53.054;5.846;2024-03-29T13:18:40;13.60;99.90
84916;DHT22;75178;53.054;5.846;2024-03-29T13:21:24;13.70;99.90
84916;DHT22;75178;53.054;5.846;2024-03-29T13:24:10;13.80;99.90
84916;DHT22;75178;53.054;5.846;2024-03-29T13:26:54;13.80;99.90
84916;DHT22;75178;53.054;5.846;2024-03-29T13:29:38;13.80;99.90
84916;DHT22;75178;53.054;5.846;2024-03-29T13:32:22;13.80;99.90
84916;DHT22;75178;53.054;5.846;2024-03-29T13:35:07;13.80;99.90
84916;DHT22;75178;53.054;5.846;2024-03-29T13:37:52;13.90;99.90
84916;DHT22;75178;53.054;5.846;2024-03-29T13:40:38;13.90;99.90
84916;DHT22;75178;53.054;5.846;2024-03-29T13:43:22;13.80;99.90
84916;DHT22;75178;53.054;5.846;2024-03-29T13:46:06;13.90;99.90
84916;DHT22;75178;53.054;5.846;2024-03-29T13:48:50;13.90;99.90
84916;DHT22;75178;53.054;5.846;2024-03-29T13:51:34;13.90;99.90
84916;DHT22;75178;53.054;5.846;2024-03-29T13:54:18;13.90;99.90
84916;DHT22;75178;53.054;5.846;2024-03-29T13:57:04;13.80;99.90
84916;DHT22;75178;53.054;5.846;2024-03-29T13:59:49;13.90;99.90
84916;DHT22;75178;53.054;5.846;2024-03-29T14:02:33;13.90;99.90
84916;DHT22;75178;53.054;5.846;2024-03-29T14:05:17;13.90;99.90
84916;DHT22;75178;53.054;5.846;2024-03-29T14:08:01;14.00;99.90
84916;DHT22;75178;53.054;5.846;2024-03-29T14:10:45;14.00;99.90
84916;DHT22;75178;53.054;5.846;2024-03-29T14:13:31;14.00;99.90
84916;DHT22;75178;53.054;5.846;2024-03-29T14:16:15;14.00;99.90
84916;DHT22;75178;53.054;5.846;2024-03-29T14:18:59;14.00;99.90
84916;DHT22;75178;53.054;5.846;2024-03-29T14:21:43;14.00;99.90
84916;DHT22;75178;53.054;5.846;2024-03-29T14:24:28;14.10;99.90
84916;DHT22;75178;53.054;5.846;2024-03-29T14:27:12;14.10;99.90
84916;DHT22;75178;53.054;5.846;2024-03-29T14:29:57;14.10;99.90
84916;DHT22;75178;53.054;5.846;2024-03-29T14:32:46;14.20;99.90
84916;DHT22;75178;53.054;5.846;2024-03-29T14:35:30;14.20;99.90
84916;DHT22;75178;53.054;5.846;2024-03-29T14:38:15;14.30;99.90
84916;DHT22;75178;53.054;5.846;2024-03-29T14:40:59;14.30;99.90
84916;DHT22;75178;53.054;5.846;2024-03-29T14:43:43;14.30;99.90
84916;DHT22;75178;53.054;5.846;2024-03-29T14:46:29;14.30;99.90
84916;DHT22;75178;53.054;5.846;2024-03-29T14:49:13;14.30;99.90
84916;DHT22;75178;53.054;5.846;2024-03-29T14:51:57;14.30;99.90
84916;DHT22;75178;53.054;5.846;2024-03-29T14:54:42;14.40;99.90
84916;DHT22;75178;53.054;5.846;2024-03-29T14:57:26;14.40;99.90
84916;DHT22;75178;53.054;5.846;2024-03-29T15:00:11;14.50;99.90
84916;DHT22;75178;53.054;5.846;2024-03-29T15:02:57;14.60;99.90
84916;DHT22;75178;53.054;5.846;2024-03-29T15:05:41;14.70;99.90
84916;DHT22;75178;53.054;5.846;2024-03-29T15:08:25;14.70;99.90
84916;DHT22;75178;53.054;5.846;2024-03-29T15:11:09;14.60;99.90
84916;DHT22;75178;53.054;5.846;2024-03-29T15:13:54;14.50;99.90
84916;DHT22;75178;53.054;5.846;2024-03-29T15:16:38;14.60;99.90
84916;DHT22;75178;53.054;5.846;2024-03-29T15:19:24;14.60;99.90
84916;DHT22;75178;53.054;5.846;2024-03-29T15:22:08;14.50;99.90
84916;DHT22;75178;53.054;5.846;2024-03-29T15:24:52;14.50;99.90
84916;DHT22;75178;53.054;5.846;2024-03-29T15:27:36;14.50;99.90
84916;DHT22;75178;53.054;5.846;2024-03-29T15:30:20;14.50;99.90
84916;DHT22;75178;53.054;5.846;2024-03-29T15:33:05;14.40;99.90
84916;DHT22;75178;53.054;5.846;2024-03-29T15:35:51;14.40;99.90
84916;DHT22;75178;53.054;5.846;2024-03-29T15:38:39;14.40;99.90
84916;DHT22;75178;53.054;5.846;2024-03-29T15:41:24;14.40;99.90
84916;DHT22;75178;53.054;5.846;2024-03-29T15:44:08;14.40;99.90
84916;DHT22;75178;53.054;5.846;2024-03-29T15:46:53;14.40;99.90
84916;DHT22;75178;53.054;5.846;2024-03-29T15:49:38;14.40;99.90
84916;DHT22;75178;53.054;5.846;2024-03-29T15:52:24;14.30;99.90
84916;DHT22;75178;53.054;5.846;2024-03-29T15:55:08;14.30;99.90
84916;DHT22;75178;53.054;5.846;2024-03-29T15:57:53;14.20;99.90
84916;DHT22;75178;53.054;5.846;2024-03-29T16:00:38;14.30;99.90
84916;DHT22;75178;53.054;5.846;2024-03-29T16:03:23;14.20;99.90
84916;DHT22;75178;53.054;5.846;2024-03-29T16:06:07;14.20;99.90
84916;DHT22;75178;53.054;5.846;2024-03-29T16:08:53;14.20;99.90
84916;DHT22;75178;53.054;5.846;2024-03-29T16:11:37;14.20;99.90
84916;DHT22;75178;53.054;5.846;2024-03-29T16:14:22;14.10;99.90
84916;DHT22;75178;53.054;5.846;2024-03-29T16:17:06;14.10;99.90
84916;DHT22;75178;53.054;5.846;2024-03-29T16:19:50;14.00;99.90
84916;DHT22;75178;53.054;5.846;2024-03-29T16:22:34;14.00;99.90
84916;DHT22;75178;53.054;5.846;2024-03-29T16:25:20;14.00;99.90
84916;DHT22;75178;53.054;5.846;2024-03-29T16:28:04;13.90;99.90
84916;DHT22;75178;53.054;5.846;2024-03-29T16:30:48;13.80;99.90
84916;DHT22;75178;53.054;5.846;2024-03-29T16:33:32;13.80;99.90
84916;DHT22;75178;53.054;5.846;2024-03-29T16:36:17;13.80;99.90
84916;DHT22;75178;53.054;5.846;2024-03-29T16:39:01;13.70;99.90
84916;DHT22;75178;53.054;5.846;2024-03-29T16:41:46;13.70;99.90
84916;DHT22;75178;53.054;5.846;2024-03-29T16:44:30;13.60;99.90
84916;DHT22;75178;53.054;5.846;2024-03-29T16:47:14;13.60;99.90
84916;DHT22;75178;53.054;5.846;2024-03-29T16:49:59;13.50;99.90
84916;DHT22;75178;53.054;5.846;2024-03-29T16:52:43;13.50;99.90
84916;DHT22;75178;53.054;5.846;2024-03-29T16:55:28;13.50;99.90
84916;DHT22;75178;53.054;5.846;2024-03-29T16:58:14;13.50;99.90
84916;DHT22;75178;53.054;5.846;2024-03-29T17:00:58;13.40;99.90
84916;DHT22;75178;53.054;5.846;2024-03-29T17:03:42;13.30;99.90
84916;DHT22;75178;53.054;5.846;2024-03-29T17:06:26;13.20;99.90
84916;DHT22;75178;53.054;5.846;2024-03-29T17:09:10;13.20;99.90
84916;DHT22;75178;53.054;5.846;2024-03-29T17:12:15;13.20;99.90
84916;DHT22;75178;53.054;5.846;2024-03-29T17:15:01;13.10;99.90
84916;DHT22;75178;53.054;5.846;2024-03-29T17:17:45;13.10;99.90
84916;DHT22;75178;53.054;5.846;2024-03-29T17:20:29;13.10;99.90
84916;DHT22;75178;53.054;5.846;2024-03-29T17:23:13;13.00;99.90
84916;DHT22;75178;53.054;5.846;2024-03-29T17:25:58;13.00;99.90
84916;DHT22;75178;53.054;5.846;2024-03-29T17:28:42;12.90;99.90